createdAt,value
2019-01-16T00:00:43.903Z,350.50
2019-01-16T00:03:52.712Z,342.25
2019-01-16T00:06:46.694Z,345.50
2019-01-16T00:09:37.296Z,306.00
2019-01-16T00:12:39.565Z,323.00
2019-01-16T00:15:22.504Z,322.00
2019-01-16T00:18:18.918Z,330.75
2019-01-16T00:21:09.616Z,315.50
2019-01-16T00:24:15.269Z,309.00
2019-01-16T00:27:20.828Z,292.50
2019-01-16T00:30:09.691Z,312.50
2019-01-16T00:32:58.836Z,296.00
2019-01-16T00:35:34.887Z,304.25
2019-01-16T00:38:33.129Z,296.00
2019-01-16T00:41:21.829Z,317.50
2019-01-16T00:44:13.082Z,324.75
2019-01-16T00:47:03.847Z,317.00
2019-01-16T00:49:53.007Z,305.00
2019-01-16T00:52:39.521Z,310.00
2019-01-16T00:55:30.169Z,312.75
2019-01-16T00:58:12.328Z,307.75
2019-01-16T01:01:05.884Z,286.75
2019-01-16T01:03:59.233Z,293.00
2019-01-16T01:06:59.013Z,315.75
2019-01-16T01:10:07.062Z,316.50
2019-01-16T01:12:56.119Z,289.75
2019-01-16T01:15:41.040Z,328.25
2019-01-16T01:18:40.887Z,322.00
2019-01-16T01:21:41.336Z,355.75
2019-01-16T01:24:35.100Z,329.75
2019-01-16T01:27:31.430Z,376.00
2019-01-16T01:30:40.282Z,354.00
2019-01-16T01:33:30.761Z,397.50
2019-01-16T01:36:14.800Z,435.25
2019-01-16T01:39:03.249Z,384.00
2019-01-16T01:41:54.362Z,423.75
2019-01-16T01:44:38.520Z,392.25
2019-01-16T01:47:35.679Z,385.00
2019-01-16T01:50:25.647Z,413.00
2019-01-16T01:53:31.393Z,423.00
2019-01-16T01:56:27.423Z,408.00
2019-01-16T01:59:20.584Z,388.50
2019-01-16T02:02:11.214Z,401.75
2019-01-16T02:05:00.548Z,393.75
2019-01-16T02:08:09.798Z,379.50
2019-01-16T02:10:51.209Z,405.75
2019-01-16T02:13:38.875Z,406.50
2019-01-16T02:16:29.167Z,436.00
2019-01-16T02:19:25.335Z,434.00
2019-01-16T02:22:30.859Z,517.75
2019-01-16T02:25:19.738Z,481.25
2019-01-16T02:28:10.425Z,501.25
2019-01-16T02:31:00.502Z,518.00
2019-01-16T02:33:56.536Z,497.50
2019-01-16T02:36:59.224Z,547.20
2019-01-16T02:40:04.980Z,549.20
2019-01-16T02:42:54.040Z,420.75
2019-01-16T02:46:00.500Z,414.25
2019-01-16T02:48:56.539Z,483.00
2019-01-16T02:51:50.023Z,507.00
2019-01-16T02:54:49.600Z,540.60
2019-01-16T02:57:42.457Z,531.00
2019-01-16T03:00:36.430Z,592.75
2019-01-16T03:03:28.090Z,623.80
2019-01-16T03:06:17.236Z,625.80
2019-01-16T03:09:00.496Z,682.83
2019-01-16T03:11:44.044Z,679.83
2019-01-16T03:14:40.225Z,705.00
2019-01-16T03:17:30.458Z,755.20
2019-01-16T03:20:30.221Z,791.20
2019-01-16T03:23:16.888Z,796.20
2019-01-16T03:26:13.927Z,788.80
2019-01-16T03:29:10.977Z,772.20
2019-01-16T03:31:48.942Z,776.20
2019-01-16T03:34:38.093Z,752.80
2019-01-16T03:37:29.650Z,767.80
2019-01-16T03:40:16.368Z,735.60
2019-01-16T03:43:05.082Z,757.00
2019-01-16T03:46:01.626Z,736.83
2019-01-16T03:48:55.207Z,706.40
2019-01-16T03:51:46.083Z,761.60
2019-01-16T03:54:39.243Z,741.40
2019-01-16T03:57:23.981Z,742.00
2019-01-16T04:00:20.024Z,717.00
2019-01-16T04:03:09.189Z,755.33
2019-01-16T04:05:56.750Z,715.40
2019-01-16T04:08:45.672Z,703.83
2019-01-16T04:11:26.298Z,736.50
2019-01-16T04:14:15.199Z,729.40
2019-01-16T04:17:04.471Z,709.00
2019-01-16T04:19:53.631Z,720.80
2019-01-16T04:22:46.586Z,636.40
2019-01-16T04:25:37.751Z,643.20
2019-01-16T04:28:23.089Z,637.20
2019-01-16T04:31:23.193Z,597.60
2019-01-16T04:34:12.674Z,588.80
2019-01-16T04:37:02.962Z,536.20
2019-01-16T04:39:59.405Z,563.40
2019-01-16T04:42:52.762Z,561.40
2019-01-16T04:45:43.143Z,488.60
2019-01-16T04:48:52.294Z,551.60
2019-01-16T04:51:52.002Z,532.75
2019-01-16T04:54:37.845Z,488.75
2019-01-16T04:57:27.257Z,464.75
2019-01-16T05:00:17.963Z,408.75
2019-01-16T05:03:18.110Z,394.00
2019-01-16T05:05:57.097Z,411.00
2019-01-16T05:08:42.157Z,443.25
2019-01-16T05:11:41.679Z,466.25
2019-01-16T05:14:40.881Z,465.25
2019-01-16T05:17:40.597Z,491.00
2019-01-16T05:20:29.968Z,445.50
2019-01-16T05:23:16.992Z,421.75
2019-01-16T05:26:06.042Z,428.00
2019-01-16T05:28:55.104Z,415.25
2019-01-16T05:31:45.594Z,318.25
2019-01-16T05:34:36.736Z,303.75
2019-01-16T05:37:29.814Z,240.50
2019-01-16T05:40:46.283Z,258.50
2019-01-16T05:43:32.170Z,252.25
2019-01-16T05:46:22.960Z,243.50
2019-01-16T05:49:13.435Z,235.50
2019-01-16T05:52:06.665Z,213.40
2019-01-16T05:54:57.092Z,221.00
2019-01-16T05:57:45.863Z,246.00
2019-01-16T06:00:39.125Z,248.50
2019-01-16T06:03:29.703Z,218.75
2019-01-16T06:06:15.627Z,208.20
2019-01-16T06:09:12.363Z,242.25
2019-01-16T06:12:03.366Z,225.00
2019-01-16T06:15:02.672Z,189.40
2019-01-16T06:17:58.801Z,203.60
2019-01-16T06:20:47.963Z,200.80
2019-01-16T06:23:47.878Z,255.25
2019-01-16T06:26:36.636Z,242.75
2019-01-16T06:29:38.602Z,226.50
2019-01-16T06:32:35.139Z,250.25
2019-01-16T06:35:38.123Z,253.75
2019-01-16T06:38:32.720Z,251.00
2019-01-16T06:41:26.059Z,235.50
2019-01-16T06:44:16.996Z,255.00
2019-01-16T06:47:07.583Z,246.75
2019-01-16T06:50:04.436Z,250.75
2019-01-16T06:53:00.670Z,265.00
2019-01-16T06:55:54.339Z,236.50
2019-01-16T06:58:37.536Z,264.50
2019-01-16T07:01:34.334Z,246.50
2019-01-16T07:04:22.949Z,255.25
2019-01-16T07:07:07.739Z,247.00
2019-01-16T07:09:51.044Z,246.75
2019-01-16T07:12:40.225Z,269.75
2019-01-16T07:15:36.442Z,248.75
2019-01-16T07:18:25.614Z,257.25
2019-01-16T07:21:27.773Z,238.50
2019-01-16T07:24:09.470Z,259.75
2019-01-16T07:27:05.493Z,256.50
2019-01-16T07:30:03.173Z,221.75
2019-01-16T07:33:05.855Z,261.25
2019-01-16T07:36:08.636Z,240.00
2019-01-16T07:38:58.097Z,225.50
2019-01-16T07:42:00.881Z,234.25
2019-01-16T07:44:57.225Z,216.00
2019-01-16T07:47:40.234Z,231.00
2019-01-16T07:50:33.908Z,225.25
2019-01-16T07:53:21.189Z,230.50
2019-01-16T07:56:26.879Z,246.50
2019-01-16T07:59:10.250Z,241.75
2019-01-16T08:01:59.465Z,225.50
2019-01-16T08:04:49.656Z,258.25
2019-01-16T08:07:42.357Z,234.75
2019-01-16T08:10:48.160Z,293.00
2019-01-16T08:13:38.568Z,249.50
2019-01-16T08:16:32.540Z,237.75
2019-01-16T08:19:22.009Z,223.25
2019-01-16T08:22:11.587Z,221.80
2019-01-16T08:25:11.398Z,232.00
2019-01-16T08:28:10.492Z,252.00
2019-01-16T08:31:19.512Z,235.00
2019-01-16T08:34:19.747Z,245.75
2019-01-16T08:37:18.024Z,221.25
2019-01-16T08:40:26.863Z,221.00
2019-01-16T08:43:12.614Z,259.50
2019-01-16T08:46:08.856Z,220.75
2019-01-16T08:48:58.058Z,249.25
2019-01-16T08:51:57.746Z,234.00
2019-01-16T08:54:46.697Z,237.00
2019-01-16T08:57:52.144Z,249.50
2019-01-16T09:00:48.479Z,192.00
2019-01-16T09:03:37.953Z,213.40
2019-01-16T09:06:27.431Z,213.20
2019-01-16T09:09:16.486Z,222.00
2019-01-16T09:12:07.097Z,205.80
2019-01-16T09:15:16.218Z,197.00
2019-01-16T09:18:07.204Z,196.40
2019-01-16T09:21:07.833Z,204.60
2019-01-16T09:24:16.278Z,176.00
2019-01-16T09:27:18.141Z,194.60
2019-01-16T09:30:06.920Z,196.20
2019-01-16T09:32:57.300Z,202.00
2019-01-16T09:35:47.885Z,194.20
2019-01-16T09:38:47.384Z,187.80
2019-01-16T09:41:37.782Z,180.40
2019-01-16T09:44:31.365Z,180.40
2019-01-16T09:47:31.072Z,179.80
2019-01-16T09:50:21.573Z,174.20
2019-01-16T09:53:02.788Z,195.20
2019-01-16T09:55:53.953Z,192.80
2019-01-16T09:58:43.445Z,169.60
2019-01-16T10:01:38.411Z,196.20
2019-01-16T10:04:30.051Z,179.40
2019-01-16T10:07:17.698Z,166.60
2019-01-16T10:10:01.713Z,183.20
2019-01-16T10:12:49.770Z,175.20
2019-01-16T10:15:38.620Z,175.20
2019-01-16T10:18:17.600Z,179.80
2019-01-16T10:20:59.724Z,185.80
2019-01-16T10:24:01.722Z,180.60
2019-01-16T10:26:50.968Z,173.00
2019-01-16T10:29:40.694Z,171.00
2019-01-16T10:32:29.618Z,153.20
2019-01-16T10:35:20.109Z,174.60
2019-01-16T10:38:19.206Z,173.40
2019-01-16T10:41:22.904Z,172.00
2019-01-16T10:44:12.488Z,170.40
2019-01-16T10:47:08.648Z,190.80
2019-01-16T10:50:03.248Z,173.40
2019-01-16T10:52:52.861Z,175.00
2019-01-16T10:55:41.741Z,183.80
2019-01-16T10:58:38.204Z,157.20
2019-01-16T11:01:26.231Z,162.80
2019-01-16T11:04:28.447Z,158.80
2019-01-16T11:07:17.439Z,178.80
2019-01-16T11:10:17.248Z,167.20
2019-01-16T11:13:13.907Z,150.20
2019-01-16T11:16:07.554Z,157.80
2019-01-16T11:19:03.825Z,155.40
2019-01-16T11:22:12.951Z,153.60
2019-01-16T11:25:01.616Z,148.80
2019-01-16T11:28:01.530Z,142.60
2019-01-16T11:30:49.419Z,156.60
2019-01-16T11:33:55.604Z,161.00
2019-01-16T11:36:44.554Z,146.40
2019-01-16T11:39:47.646Z,138.80
2019-01-16T11:42:45.223Z,154.00
2019-01-16T11:45:24.337Z,151.40
2019-01-16T11:48:20.669Z,141.40
2019-01-16T11:51:18.486Z,149.80
2019-01-16T11:54:04.560Z,154.40
2019-01-16T11:56:43.573Z,158.60
2019-01-16T11:59:41.539Z,171.40
2019-01-16T12:02:44.122Z,175.40
2019-01-16T12:05:39.411Z,158.00
2019-01-16T12:08:29.721Z,184.20
2019-01-16T12:11:29.031Z,146.20
2019-01-16T12:14:18.188Z,163.80
2019-01-16T12:17:01.832Z,150.00
2019-01-16T12:19:58.248Z,165.60
2019-01-16T12:22:54.902Z,174.00
2019-01-16T12:25:38.544Z,178.40
2019-01-16T12:28:34.871Z,163.80
2019-01-16T12:31:23.825Z,184.40
2019-01-16T12:34:14.327Z,187.40
2019-01-16T12:37:04.824Z,181.00
2019-01-16T12:39:55.530Z,191.60
2019-01-16T12:42:44.504Z,200.40
2019-01-16T12:45:37.745Z,238.00
2019-01-16T12:48:44.212Z,225.00
2019-01-16T12:51:38.616Z,228.50
2019-01-16T12:54:31.849Z,215.25
2019-01-16T12:57:36.559Z,249.50
2019-01-16T13:00:44.579Z,291.25
2019-01-16T13:03:35.904Z,1041.20
2019-01-16T13:09:15.362Z,906.40
2019-01-16T13:12:06.374Z,922.80
2019-01-16T13:15:00.974Z,765.25
2019-01-16T13:17:50.426Z,733.60
2019-01-16T13:20:40.821Z,697.80
2019-01-16T13:23:29.986Z,560.00
2019-01-16T13:26:18.751Z,533.00
2019-01-16T13:29:15.089Z,476.00
2019-01-16T13:32:14.707Z,461.00
2019-01-16T13:35:05.806Z,394.25
2019-01-16T13:37:48.936Z,401.00
2019-01-16T13:40:38.622Z,421.00
2019-01-16T13:43:24.702Z,385.00
2019-01-16T13:46:14.886Z,394.00
2019-01-16T14:00:37.416Z,339.75
2019-01-16T14:03:20.997Z,355.00
2019-01-16T14:06:11.510Z,362.25
2019-01-16T14:09:12.941Z,357.00
2019-01-16T14:12:01.871Z,341.25
2019-01-16T14:14:51.630Z,343.75
2019-01-16T14:17:46.264Z,376.75
2019-01-16T14:20:37.364Z,398.50
2019-01-16T14:23:42.925Z,387.75
2019-01-16T14:26:31.784Z,397.75
2019-01-16T14:29:24.851Z,377.25
2019-01-16T14:32:13.700Z,363.75
2019-01-16T14:35:12.997Z,432.75
2019-01-16T14:38:02.056Z,406.50
2019-01-16T14:41:00.236Z,403.50
2019-01-16T14:43:43.370Z,405.25
2019-01-16T14:46:32.114Z,396.00
2019-01-16T14:49:18.457Z,421.50
2019-01-16T14:52:14.971Z,427.50
2019-01-16T14:55:06.308Z,407.50
2019-01-16T14:57:47.235Z,424.50
2019-01-16T15:00:37.436Z,388.50
2019-01-16T15:03:26.387Z,429.75
2019-01-16T15:06:13.315Z,409.00
2019-01-16T15:09:07.485Z,428.50
2019-01-16T15:12:00.958Z,423.50
2019-01-16T15:14:50.334Z,446.25
2019-01-16T15:17:40.611Z,436.00
2019-01-16T15:20:43.801Z,460.00
2019-01-16T15:23:26.043Z,467.50
2019-01-16T15:26:15.267Z,430.50
2019-01-16T15:28:57.884Z,488.25
2019-01-16T15:31:47.150Z,466.75
2019-01-16T15:34:49.367Z,451.00
2019-01-16T15:37:43.001Z,445.00
2019-01-16T15:40:32.858Z,464.00
2019-01-16T15:43:20.426Z,446.25
2019-01-16T15:46:20.452Z,448.75
2019-01-16T15:49:17.343Z,425.75
2019-01-16T15:52:13.059Z,425.00
2019-01-16T15:55:09.119Z,433.25
2019-01-16T15:57:59.573Z,533.50
2019-01-16T16:00:56.150Z,521.75
2019-01-16T16:04:02.000Z,504.80
2019-01-16T16:06:50.859Z,526.25
2019-01-16T16:09:38.146Z,524.20
2019-01-16T16:12:29.205Z,520.00
2019-01-16T16:15:22.358Z,528.20
2019-01-16T16:18:21.868Z,500.25
2019-01-16T16:21:20.653Z,510.00
2019-01-16T16:24:05.772Z,494.25
2019-01-16T16:26:48.351Z,513.75
2019-01-16T16:29:37.815Z,452.50
2019-01-16T16:32:37.511Z,477.75
2019-01-16T16:35:27.458Z,479.25
2019-01-16T16:38:16.257Z,482.25
2019-01-16T16:41:12.483Z,443.00
2019-01-16T16:44:03.188Z,472.25
2019-01-16T16:46:57.462Z,428.75
2019-01-16T16:49:40.585Z,453.50
2019-01-16T16:52:31.195Z,449.75
2019-01-16T16:55:37.860Z,474.00
2019-01-16T16:58:31.324Z,466.75
2019-01-16T17:01:28.061Z,444.75
2019-01-16T17:04:18.212Z,440.00
2019-01-16T17:07:14.273Z,455.75
2019-01-16T17:10:04.266Z,457.75
2019-01-16T17:12:55.361Z,471.50
2019-01-16T17:15:51.424Z,451.75
2019-01-16T17:18:39.493Z,454.00
2019-01-16T17:21:26.038Z,441.25
2019-01-16T17:24:26.497Z,435.00
2019-01-16T17:27:15.343Z,472.75
2019-01-16T17:30:00.394Z,454.25
2019-01-16T17:32:59.509Z,423.75
2019-01-16T17:36:01.967Z,466.00
2019-01-16T17:38:58.099Z,496.75
2019-01-16T17:41:41.562Z,445.50
2019-01-16T17:44:28.961Z,454.75
2019-01-16T17:47:25.492Z,445.25
2019-01-16T17:50:15.589Z,468.00
2019-01-16T17:53:15.195Z,465.00
2019-01-16T17:56:07.953Z,446.00
2019-01-16T17:58:57.568Z,457.25
2019-01-16T18:02:00.089Z,473.25
2019-01-16T18:04:44.550Z,467.75
2019-01-16T18:07:33.211Z,462.25
2019-01-16T18:10:24.022Z,445.00
2019-01-16T18:13:26.087Z,461.25
2019-01-16T18:16:22.507Z,450.75
2019-01-16T18:19:12.801Z,483.75
2019-01-16T18:22:11.887Z,479.50
2019-01-16T18:25:00.858Z,476.75
2019-01-16T18:27:44.154Z,500.25
2019-01-16T18:30:44.716Z,458.50
2019-01-16T18:33:37.252Z,426.50
2019-01-16T18:36:25.960Z,480.50
2019-01-16T18:39:31.870Z,481.25
2019-01-16T18:42:28.104Z,487.75
2019-01-16T18:45:26.689Z,492.00
2019-01-16T18:48:20.376Z,475.25
2019-01-16T18:51:11.568Z,488.50
2019-01-16T18:53:58.067Z,490.75
2019-01-16T18:56:56.867Z,487.25
2019-01-16T18:59:50.541Z,463.75
2019-01-16T19:02:37.760Z,455.50
2019-01-16T19:05:37.459Z,454.00
2019-01-16T19:08:38.809Z,476.75
2019-01-16T19:11:41.095Z,470.50
2019-01-16T19:14:46.541Z,465.25
2019-01-16T19:17:43.500Z,449.75
2019-01-16T19:20:35.097Z,468.00
2019-01-16T19:23:25.295Z,469.50
2019-01-16T19:26:10.869Z,468.25
2019-01-16T19:29:00.557Z,454.75
2019-01-16T19:31:53.709Z,464.25
2019-01-16T19:34:34.481Z,464.25
2019-01-16T19:37:17.190Z,448.00
2019-01-16T19:40:20.499Z,426.75
2019-01-16T19:43:29.312Z,417.00
2019-01-16T19:46:31.810Z,410.50
2019-01-16T19:49:13.993Z,413.50
2019-01-16T19:51:58.967Z,398.25
2019-01-16T19:54:49.149Z,386.25
2019-01-16T19:57:39.330Z,420.00
2019-01-16T20:00:36.797Z,397.25
2019-01-16T20:03:35.789Z,395.25
2019-01-16T20:06:32.121Z,395.50
2019-01-16T20:09:20.576Z,413.50
2019-01-16T20:12:26.324Z,405.00
2019-01-16T20:15:19.897Z,407.25
2019-01-16T20:18:12.736Z,405.50
2019-01-16T20:21:01.849Z,413.00
2019-01-16T20:23:50.667Z,418.75
2019-01-16T20:26:53.256Z,411.00
2019-01-16T20:29:41.898Z,413.75
2019-01-16T20:32:32.281Z,392.00
2019-01-16T20:35:25.146Z,404.25
2019-01-16T20:38:15.430Z,393.50
2019-01-16T20:41:00.366Z,384.25
2019-01-16T20:43:59.917Z,393.75
2019-01-16T20:47:05.460Z,386.50
2019-01-16T20:49:55.236Z,405.25
2019-01-16T20:52:48.398Z,359.75
2019-01-16T20:55:45.992Z,379.50
2019-01-16T20:58:29.107Z,381.25
2019-01-16T21:01:10.865Z,360.00
2019-01-16T21:04:07.114Z,355.50
2019-01-16T21:06:55.965Z,328.75
2019-01-16T21:09:54.746Z,370.25
2019-01-16T21:13:00.408Z,329.75
2019-01-16T21:15:51.755Z,318.25
2019-01-16T21:18:52.759Z,324.75
2019-01-16T21:21:35.982Z,329.75
2019-01-16T21:24:25.255Z,340.75
2019-01-16T21:27:15.851Z,338.50
2019-01-16T21:30:06.034Z,333.00
2019-01-16T21:32:46.098Z,336.00
2019-01-16T21:35:36.689Z,357.00
2019-01-16T21:38:45.350Z,342.75
2019-01-16T21:41:35.878Z,341.00
2019-01-16T21:44:35.315Z,335.00
2019-01-16T21:47:38.001Z,347.25
2019-01-16T21:50:27.375Z,330.50
2019-01-16T21:53:15.502Z,333.25
2019-01-16T21:56:05.592Z,354.50
2019-01-16T21:58:54.660Z,340.50
2019-01-16T22:01:53.549Z,325.75
2019-01-16T22:04:42.596Z,327.25
2019-01-16T22:07:50.826Z,335.50
2019-01-16T22:10:44.276Z,312.25
2019-01-16T22:13:34.382Z,348.00
2019-01-16T22:16:26.438Z,334.75
2019-01-16T22:19:23.863Z,305.25
2019-01-16T22:22:16.415Z,327.75
2019-01-16T22:25:13.862Z,311.25
2019-01-16T22:27:56.990Z,311.75
2019-01-16T22:30:49.839Z,303.50
2019-01-16T22:33:45.960Z,326.75
2019-01-16T22:36:29.911Z,317.50
2019-01-16T22:39:19.820Z,319.25
2019-01-16T22:42:08.850Z,315.25
2019-01-16T22:44:59.056Z,325.50
2019-01-16T22:47:40.548Z,328.00
2019-01-16T22:50:36.879Z,340.25
2019-01-16T22:53:30.372Z,332.50
2019-01-16T22:56:29.730Z,342.75
2019-01-16T22:59:19.420Z,311.75
2019-01-16T23:02:05.247Z,318.00
2019-01-16T23:04:55.006Z,327.75
2019-01-16T23:07:34.955Z,333.00
2019-01-16T23:10:43.266Z,326.50
2019-01-16T23:13:36.305Z,305.25
2019-01-16T23:16:42.256Z,329.00
2019-01-16T23:19:31.213Z,322.00
2019-01-16T23:22:27.445Z,345.75
2019-01-16T23:25:16.193Z,357.75
2019-01-16T23:28:10.713Z,361.25
2019-01-16T23:31:13.926Z,372.50
2019-01-16T23:34:10.340Z,365.25
2019-01-16T23:37:05.734Z,340.25
2019-01-16T23:39:45.793Z,375.75
2019-01-16T23:42:34.754Z,354.50
2019-01-16T23:45:31.489Z,354.50
2019-01-16T23:48:22.078Z,342.75
2019-01-16T23:51:05.118Z,357.00
2019-01-16T23:53:58.569Z,333.25
2019-01-16T23:56:47.221Z,351.00
2019-01-16T23:59:43.563Z,333.75
